sensor_id;sensor_type;location;lat;lon;timestamp;P1;durP1;ratioP1;P2;durP2;ratioP2
5878;SDS011;2965;42.640;23.370;2023-07-20T04:01:33;8.23;;;4.77;;
5878;SDS011;2965;42.640;23.370;2023-07-20T04:04:02;4.50;;;4.10;;
5878;SDS011;2965;42.640;23.370;2023-07-20T04:06:31;11.83;;;4.90;;
5878;SDS011;2965;42.640;23.370;2023-07-20T04:08:56;5.97;;;4.77;;
5878;SDS011;2965;42.640;23.370;2023-07-20T04:11:21;8.03;;;4.50;;
5878;SDS011;2965;42.640;23.370;2023-07-20T04:13:47;7.30;;;5.03;;
5878;SDS011;2965;42.640;23.370;2023-07-20T04:16:12;6.57;;;5.60;;
5878;SDS011;2965;42.640;23.370;2023-07-20T04:18:37;10.83;;;5.10;;
5878;SDS011;2965;42.640;23.370;2023-07-20T04:21:03;12.23;;;4.50;;
5878;SDS011;2965;42.640;23.370;2023-07-20T04:23:28;7.93;;;5.60;;
5878;SDS011;2965;42.640;23.370;2023-07-20T04:25:53;5.80;;;5.30;;
5878;SDS011;2965;42.640;23.370;2023-07-20T04:28:19;7.30;;;5.50;;
5878;SDS011;2965;42.640;23.370;2023-07-20T04:30:44;6.50;;;4.67;;
5878;SDS011;2965;42.640;23.370;2023-07-20T04:33:09;12.43;;;5.47;;
5878;SDS011;2965;42.640;23.370;2023-07-20T04:35:54;12.30;;;5.90;;
5878;SDS011;2965;42.640;23.370;2023-07-20T04:38:19;10.00;;;5.87;;
5878;SDS011;2965;42.640;23.370;2023-07-20T04:40:47;16.47;;;6.70;;
5878;SDS011;2965;42.640;23.370;2023-07-20T04:43:15;13.37;;;7.73;;
5878;SDS011;2965;42.640;23.370;2023-07-20T04:45:42;13.00;;;7.00;;
5878;SDS011;2965;42.640;23.370;2023-07-20T04:48:11;14.87;;;6.93;;
5878;SDS011;2965;42.640;23.370;2023-07-20T04:50:40;10.30;;;7.63;;
5878;SDS011;2965;42.640;23.370;2023-07-20T04:53:05;13.93;;;7.00;;
5878;SDS011;2965;42.640;23.370;2023-07-20T04:55:31;9.40;;;7.23;;
5878;SDS011;2965;42.640;23.370;2023-07-20T04:57:58;12.40;;;6.50;;
5878;SDS011;2965;42.640;23.370;2023-07-20T05:00:25;6.47;;;5.73;;
5878;SDS011;2965;42.640;23.370;2023-07-20T05:02:50;11.90;;;6.87;;
5878;SDS011;2965;42.640;23.370;2023-07-20T05:05:15;7.53;;;5.50;;
5878;SDS011;2965;42.640;23.370;2023-07-20T05:07:41;12.20;;;6.33;;
5878;SDS011;2965;42.640;23.370;2023-07-20T05:10:06;16.10;;;6.43;;
5878;SDS011;2965;42.640;23.370;2023-07-20T05:12:32;10.37;;;5.70;;
5878;SDS011;2965;42.640;23.370;2023-07-20T05:14:58;6.53;;;5.93;;
5878;SDS011;2965;42.640;23.370;2023-07-20T05:17:23;6.07;;;5.57;;
5878;SDS011;2965;42.640;23.370;2023-07-20T05:19:49;7.60;;;5.77;;
5878;SDS011;2965;42.640;23.370;2023-07-20T05:22:15;6.30;;;5.70;;
5878;SDS011;2965;42.640;23.370;2023-07-20T05:24:41;9.63;;;5.93;;
5878;SDS011;2965;42.640;23.370;2023-07-20T05:27:06;19.73;;;9.07;;
5878;SDS011;2965;42.640;23.370;2023-07-20T05:29:32;10.50;;;6.50;;
5878;SDS011;2965;42.640;23.370;2023-07-20T05:31:58;8.90;;;6.00;;
5878;SDS011;2965;42.640;23.370;2023-07-20T05:34:23;11.37;;;5.60;;
5878;SDS011;2965;42.640;23.370;2023-07-20T05:36:49;7.70;;;7.00;;
5878;SDS011;2965;42.640;23.370;2023-07-20T05:39:16;18.30;;;6.77;;
5878;SDS011;2965;42.640;23.370;2023-07-20T05:41:42;20.50;;;7.63;;
5878;SDS011;2965;42.640;23.370;2023-07-20T05:44:07;10.80;;;6.30;;
5878;SDS011;2965;42.640;23.370;2023-07-20T05:46:33;8.43;;;6.10;;
5878;SDS011;2965;42.640;23.370;2023-07-20T05:48:58;10.90;;;6.33;;
5878;SDS011;2965;42.640;23.370;2023-07-20T05:51:24;11.93;;;5.90;;
5878;SDS011;2965;42.640;23.370;2023-07-20T05:53:49;6.17;;;5.77;;
5878;SDS011;2965;42.640;23.370;2023-07-20T05:56:14;16.27;;;5.60;;
5878;SDS011;2965;42.640;23.370;2023-07-20T05:58:40;6.00;;;5.53;;
5878;SDS011;2965;42.640;23.370;2023-07-20T06:01:05;6.00;;;4.80;;
5878;SDS011;2965;42.640;23.370;2023-07-20T06:03:33;7.63;;;6.43;;
5878;SDS011;2965;42.640;23.370;2023-07-20T06:06:02;7.30;;;5.53;;
5878;SDS011;2965;42.640;23.370;2023-07-20T06:08:29;12.50;;;5.97;;
5878;SDS011;2965;42.640;23.370;2023-07-20T06:10:54;11.60;;;6.03;;
5878;SDS011;2965;42.640;23.370;2023-07-20T06:13:20;7.70;;;4.53;;
5878;SDS011;2965;42.640;23.370;2023-07-20T06:15:46;6.97;;;5.17;;
5878;SDS011;2965;42.640;23.370;2023-07-20T06:18:13;12.17;;;4.97;;
5878;SDS011;2965;42.640;23.370;2023-07-20T06:20:39;11.30;;;5.23;;
5878;SDS011;2965;42.640;23.370;2023-07-20T06:23:04;5.67;;;5.27;;
5878;SDS011;2965;42.640;23.370;2023-07-20T06:25:30;9.67;;;5.17;;
5878;SDS011;2965;42.640;23.370;2023-07-20T06:27:55;7.03;;;5.57;;
5878;SDS011;2965;42.640;23.370;2023-07-20T06:30:21;6.30;;;4.73;;
5878;SDS011;2965;42.640;23.370;2023-07-20T06:32:47;8.57;;;5.53;;
5878;SDS011;2965;42.640;23.370;2023-07-20T06:35:13;12.60;;;6.23;;
5878;SDS011;2965;42.640;23.370;2023-07-20T06:37:38;22.90;;;5.70;;
5878;SDS011;2965;42.640;23.370;2023-07-20T06:40:04;6.10;;;5.03;;
5878;SDS011;2965;42.640;23.370;2023-07-20T06:42:30;8.90;;;4.83;;
5878;SDS011;2965;42.640;23.370;2023-07-20T06:44:56;8.33;;;4.80;;
5878;SDS011;2965;42.640;23.370;2023-07-20T06:47:22;13.93;;;5.17;;
5878;SDS011;2965;42.640;23.370;2023-07-20T06:49:47;13.53;;;5.50;;
5878;SDS011;2965;42.640;23.370;2023-07-20T06:52:13;8.53;;;5.50;;
5878;SDS011;2965;42.640;23.370;2023-07-20T06:54:38;10.83;;;6.00;;
5878;SDS011;2965;42.640;23.370;2023-07-20T06:57:04;11.23;;;5.37;;
5878;SDS011;2965;42.640;23.370;2023-07-20T06:59:30;7.00;;;5.13;;
5878;SDS011;2965;42.640;23.370;2023-07-20T07:01:55;22.10;;;6.77;;
5878;SDS011;2965;42.640;23.370;2023-07-20T07:04:21;10.40;;;5.20;;
5878;SDS011;2965;42.640;23.370;2023-07-20T07:06:46;7.30;;;4.87;;
5878;SDS011;2965;42.640;23.370;2023-07-20T07:09:11;7.63;;;4.90;;
5878;SDS011;2965;42.640;23.370;2023-07-20T07:11:38;36.73;;;4.90;;
5878;SDS011;2965;42.640;23.370;2023-07-20T07:14:03;12.37;;;6.30;;
5878;SDS011;2965;42.640;23.370;2023-07-20T07:16:29;12.53;;;4.83;;
5878;SDS011;2965;42.640;23.370;2023-07-20T07:18:54;12.80;;;5.63;;
5878;SDS011;2965;42.640;23.370;2023-07-20T07:21:20;7.67;;;4.97;;
5878;SDS011;2965;42.640;23.370;2023-07-20T07:23:45;9.17;;;5.40;;
5878;SDS011;2965;42.640;23.370;2023-07-20T07:26:11;12.33;;;5.67;;
5878;SDS011;2965;42.640;23.370;2023-07-20T07:28:36;11.03;;;5.73;;
5878;SDS011;2965;42.640;23.370;2023-07-20T07:31:05;8.73;;;4.70;;
5878;SDS011;2965;42.640;23.370;2023-07-20T07:33:31;14.43;;;5.50;;
5878;SDS011;2965;42.640;23.370;2023-07-20T07:35:57;12.60;;;4.90;;
5878;SDS011;2965;42.640;23.370;2023-07-20T07:38:22;6.63;;;5.73;;
5878;SDS011;2965;42.640;23.370;2023-07-20T07:40:48;15.57;;;5.87;;
5878;SDS011;2965;42.640;23.370;2023-07-20T07:43:13;35.17;;;6.70;;
5878;SDS011;2965;42.640;23.370;2023-07-20T07:45:39;13.73;;;8.63;;
5878;SDS011;2965;42.640;23.370;2023-07-20T07:48:05;14.03;;;8.50;;
5878;SDS011;2965;42.640;23.370;2023-07-20T07:50:31;20.17;;;7.60;;
5878;SDS011;2965;42.640;23.370;2023-07-20T07:52:57;14.13;;;7.13;;
5878;SDS011;2965;42.640;23.370;2023-07-20T07:55:23;16.33;;;8.50;;
5878;SDS011;2965;42.640;23.370;2023-07-20T07:57:49;15.57;;;6.80;;
5878;SDS011;2965;42.640;23.370;2023-07-20T08:00:15;27.10;;;7.43;;
5878;SDS011;2965;42.640;23.370;2023-07-20T08:02:43;18.50;;;7.70;;
5878;SDS011;2965;42.640;23.370;2023-07-20T08:05:11;7.97;;;6.50;;
5878;SDS011;2965;42.640;23.370;2023-07-20T08:07:37;11.30;;;6.37;;
5878;SDS011;2965;42.640;23.370;2023-07-20T08:10:03;17.13;;;8.20;;
5878;SDS011;2965;42.640;23.370;2023-07-20T08:12:29;16.07;;;6.80;;
5878;SDS011;2965;42.640;23.370;2023-07-20T08:14:54;13.30;;;6.80;;
5878;SDS011;2965;42.640;23.370;2023-07-20T08:17:19;14.73;;;7.20;;
5878;SDS011;2965;42.640;23.370;2023-07-20T08:19:45;9.03;;;7.00;;
5878;SDS011;2965;42.640;23.370;2023-07-20T08:22:11;16.43;;;6.80;;
5878;SDS011;2965;42.640;23.370;2023-07-20T08:24:40;11.80;;;6.83;;
5878;SDS011;2965;42.640;23.370;2023-07-20T08:27:07;15.30;;;6.10;;
5878;SDS011;2965;42.640;23.370;2023-07-20T08:29:33;15.30;;;6.50;;
5878;SDS011;2965;42.640;23.370;2023-07-20T08:31:59;14.00;;;6.00;;
5878;SDS011;2965;42.640;23.370;2023-07-20T08:34:24;5.07;;;4.20;;
5878;SDS011;2965;42.640;23.370;2023-07-20T08:36:50;5.13;;;4.20;;
5878;SDS011;2965;42.640;23.370;2023-07-20T08:39:15;4.50;;;4.20;;
5878;SDS011;2965;42.640;23.370;2023-07-20T08:41:41;13.97;;;4.00;;
5878;SDS011;2965;42.640;23.370;2023-07-20T08:44:08;10.13;;;3.90;;
5878;SDS011;2965;42.640;23.370;2023-07-20T08:46:33;13.67;;;5.23;;
5878;SDS011;2965;42.640;23.370;2023-07-20T08:49:00;5.33;;;3.50;;
5878;SDS011;2965;42.640;23.370;2023-07-20T08:51:27;5.63;;;4.07;;
5878;SDS011;2965;42.640;23.370;2023-07-20T08:53:54;4.00;;;3.70;;
5878;SDS011;2965;42.640;23.370;2023-07-20T08:56:19;12.90;;;2.90;;
5878;SDS011;2965;42.640;23.370;2023-07-20T08:58:46;10.47;;;3.50;;
5878;SDS011;2965;42.640;23.370;2023-07-20T09:01:12;10.10;;;4.57;;
5878;SDS011;2965;42.640;23.370;2023-07-20T09:03:37;9.97;;;3.90;;
5878;SDS011;2965;42.640;23.370;2023-07-20T09:06:04;7.23;;;3.40;;
5878;SDS011;2965;42.640;23.370;2023-07-20T09:08:30;9.10;;;3.80;;
5878;SDS011;2965;42.640;23.370;2023-07-20T09:10:56;8.40;;;4.20;;
5878;SDS011;2965;42.640;23.370;2023-07-20T09:13:21;6.33;;;3.13;;
5878;SDS011;2965;42.640;23.370;2023-07-20T09:15:48;8.90;;;2.90;;
5878;SDS011;2965;42.640;23.370;2023-07-20T09:18:28;3.43;;;3.13;;
5878;SDS011;2965;42.640;23.370;2023-07-20T09:20:58;20.17;;;3.60;;
5878;SDS011;2965;42.640;23.370;2023-07-20T09:23:29;10.13;;;3.67;;
5878;SDS011;2965;42.640;23.370;2023-07-20T09:25:57;9.63;;;3.60;;
5878;SDS011;2965;42.640;23.370;2023-07-20T09:28:22;3.50;;;3.30;;
5878;SDS011;2965;42.640;23.370;2023-07-20T09:30:48;4.10;;;3.17;;
5878;SDS011;2965;42.640;23.370;2023-07-20T09:33:22;17.23;;;3.20;;
5878;SDS011;2965;42.640;23.370;2023-07-20T09:35:48;6.53;;;2.93;;
5878;SDS011;2965;42.640;23.370;2023-07-20T09:38:14;5.93;;;3.27;;
5878;SDS011;2965;42.640;23.370;2023-07-20T09:40:40;6.47;;;3.27;;
5878;SDS011;2965;42.640;23.370;2023-07-20T09:43:09;9.40;;;3.67;;
5878;SDS011;2965;42.640;23.370;2023-07-20T09:45:39;4.60;;;3.50;;
5878;SDS011;2965;42.640;23.370;2023-07-20T09:48:06;5.47;;;3.27;;
5878;SDS011;2965;42.640;23.370;2023-07-20T09:50:33;6.40;;;3.20;;
5878;SDS011;2965;42.640;23.370;2023-07-20T09:53:00;16.77;;;3.73;;
5878;SDS011;2965;42.640;23.370;2023-07-20T09:55:27;4.83;;;3.43;;
5878;SDS011;2965;42.640;23.370;2023-07-20T09:57:54;16.03;;;3.90;;
5878;SDS011;2965;42.640;23.370;2023-07-20T10:00:20;6.63;;;3.30;;
5878;SDS011;2965;42.640;23.370;2023-07-20T10:02:46;15.20;;;3.60;;
5878;SDS011;2965;42.640;23.370;2023-07-20T10:05:14;8.30;;;4.20;;
5878;SDS011;2965;42.640;23.370;2023-07-20T10:07:46;4.07;;;2.90;;
5878;SDS011;2965;42.640;23.370;2023-07-20T10:10:13;12.30;;;3.80;;
5878;SDS011;2965;42.640;23.370;2023-07-20T10:12:43;4.37;;;2.87;;
5878;SDS011;2965;42.640;23.370;2023-07-20T10:17:45;10.93;;;3.70;;
5878;SDS011;2965;42.640;23.370;2023-07-20T10:20:18;8.00;;;2.60;;
5878;SDS011;2965;42.640;23.370;2023-07-20T10:22:45;12.93;;;3.20;;
5878;SDS011;2965;42.640;23.370;2023-07-20T10:25:13;10.93;;;3.90;;
5878;SDS011;2965;42.640;23.370;2023-07-20T10:27:39;4.50;;;2.67;;
5878;SDS011;2965;42.640;23.370;2023-07-20T10:30:05;3.53;;;2.93;;
5878;SDS011;2965;42.640;23.370;2023-07-20T10:32:31;7.37;;;3.00;;
5878;SDS011;2965;42.640;23.370;2023-07-20T10:34:57;5.67;;;3.40;;
5878;SDS011;2965;42.640;23.370;2023-07-20T10:42:54;3.03;;;2.83;;
5878;SDS011;2965;42.640;23.370;2023-07-20T10:45:32;6.40;;;2.90;;
5878;SDS011;2965;42.640;23.370;2023-07-20T10:48:12;6.10;;;2.63;;
5878;SDS011;2965;42.640;23.370;2023-07-20T10:50:44;12.13;;;3.50;;
5878;SDS011;2965;42.640;23.370;2023-07-20T10:53:11;7.67;;;3.70;;
5878;SDS011;2965;42.640;23.370;2023-07-20T10:55:40;6.03;;;3.10;;
5878;SDS011;2965;42.640;23.370;2023-07-20T10:58:13;4.50;;;3.50;;
5878;SDS011;2965;42.640;23.370;2023-07-20T11:03:43;4.20;;;3.50;;
5878;SDS011;2965;42.640;23.370;2023-07-20T11:09:11;7.13;;;3.27;;
5878;SDS011;2965;42.640;23.370;2023-07-20T11:11:37;5.87;;;3.47;;
5878;SDS011;2965;42.640;23.370;2023-07-20T11:14:05;6.70;;;3.70;;
5878;SDS011;2965;42.640;23.370;2023-07-20T11:19:01;4.53;;;3.00;;
5878;SDS011;2965;42.640;23.370;2023-07-20T11:21:28;3.60;;;3.30;;
5878;SDS011;2965;42.640;23.370;2023-07-20T11:23:55;4.27;;;3.97;;
5878;SDS011;2965;42.640;23.370;2023-07-20T11:26:20;3.87;;;3.53;;
5878;SDS011;2965;42.640;23.370;2023-07-20T11:28:49;6.63;;;3.20;;
5878;SDS011;2965;42.640;23.370;2023-07-20T11:31:17;6.20;;;3.77;;
5878;SDS011;2965;42.640;23.370;2023-07-20T11:33:45;16.87;;;4.77;;
5878;SDS011;2965;42.640;23.370;2023-07-20T11:36:11;7.77;;;3.40;;
5878;SDS011;2965;42.640;23.370;2023-07-20T11:38:38;17.53;;;5.10;;
5878;SDS011;2965;42.640;23.370;2023-07-20T11:41:06;8.17;;;4.57;;
5878;SDS011;2965;42.640;23.370;2023-07-20T11:43:32;7.23;;;5.90;;
5878;SDS011;2965;42.640;23.370;2023-07-20T11:45:57;7.70;;;6.30;;
5878;SDS011;2965;42.640;23.370;2023-07-20T11:48:23;9.70;;;6.83;;
5878;SDS011;2965;42.640;23.370;2023-07-20T11:50:48;8.40;;;6.20;;
5878;SDS011;2965;42.640;23.370;2023-07-20T11:53:14;6.20;;;5.10;;
5878;SDS011;2965;42.640;23.370;2023-07-20T11:55:41;5.30;;;4.80;;
5878;SDS011;2965;42.640;23.370;2023-07-20T11:58:07;17.53;;;5.93;;
5878;SDS011;2965;42.640;23.370;2023-07-20T12:00:34;5.90;;;5.40;;
5878;SDS011;2965;42.640;23.370;2023-07-20T12:03:04;7.63;;;5.80;;
5878;SDS011;2965;42.640;23.370;2023-07-20T12:05:31;7.20;;;5.50;;
5878;SDS011;2965;42.640;23.370;2023-07-20T12:07:57;8.70;;;5.97;;
5878;SDS011;2965;42.640;23.370;2023-07-20T12:10:26;7.20;;;5.97;;
5878;SDS011;2965;42.640;23.370;2023-07-20T12:12:53;6.07;;;5.57;;
5878;SDS011;2965;42.640;23.370;2023-07-20T12:15:20;8.80;;;5.90;;
5878;SDS011;2965;42.640;23.370;2023-07-20T12:17:46;6.17;;;5.60;;
5878;SDS011;2965;42.640;23.370;2023-07-20T12:20:24;15.10;;;5.33;;
5878;SDS011;2965;42.640;23.370;2023-07-20T12:22:55;7.30;;;5.57;;
5878;SDS011;2965;42.640;23.370;2023-07-20T12:25:22;9.90;;;5.17;;
5878;SDS011;2965;42.640;23.370;2023-07-20T12:27:48;15.20;;;6.73;;
5878;SDS011;2965;42.640;23.370;2023-07-20T12:30:13;5.83;;;5.17;;
5878;SDS011;2965;42.640;23.370;2023-07-20T12:32:39;13.20;;;4.97;;
5878;SDS011;2965;42.640;23.370;2023-07-20T12:35:05;8.00;;;4.47;;
5878;SDS011;2965;42.640;23.370;2023-07-20T12:37:31;9.10;;;3.37;;
5878;SDS011;2965;42.640;23.370;2023-07-20T12:39:56;7.07;;;4.30;;
5878;SDS011;2965;42.640;23.370;2023-07-20T12:42:22;4.50;;;3.27;;
5878;SDS011;2965;42.640;23.370;2023-07-20T12:44:48;10.10;;;3.03;;
5878;SDS011;2965;42.640;23.370;2023-07-20T12:47:15;3.93;;;3.50;;
5878;SDS011;2965;42.640;23.370;2023-07-20T12:49:42;6.13;;;3.50;;
5878;SDS011;2965;42.640;23.370;2023-07-20T12:52:10;14.10;;;4.03;;
5878;SDS011;2965;42.640;23.370;2023-07-20T12:54:35;4.53;;;4.10;;
5878;SDS011;2965;42.640;23.370;2023-07-20T12:57:01;5.73;;;3.77;;
5878;SDS011;2965;42.640;23.370;2023-07-20T12:59:28;3.37;;;2.83;;
5878;SDS011;2965;42.640;23.370;2023-07-20T13:01:53;4.83;;;3.43;;
5878;SDS011;2965;42.640;23.370;2023-07-20T13:04:19;7.33;;;2.83;;
5878;SDS011;2965;42.640;23.370;2023-07-20T13:06:44;6.60;;;3.37;;
5878;SDS011;2965;42.640;23.370;2023-07-20T13:09:09;11.73;;;4.50;;
5878;SDS011;2965;42.640;23.370;2023-07-20T13:11:35;3.63;;;3.43;;
5878;SDS011;2965;42.640;23.370;2023-07-20T13:14:00;5.30;;;3.50;;
5878;SDS011;2965;42.640;23.370;2023-07-20T13:16:25;3.50;;;3.00;;
5878;SDS011;2965;42.640;23.370;2023-07-20T13:18:51;7.93;;;3.40;;
5878;SDS011;2965;42.640;23.370;2023-07-20T13:21:16;6.17;;;3.73;;
5878;SDS011;2965;42.640;23.370;2023-07-20T13:23:42;8.60;;;3.90;;
5878;SDS011;2965;42.640;23.370;2023-07-20T13:26:08;4.30;;;2.97;;
5878;SDS011;2965;42.640;23.370;2023-07-20T13:28:33;3.13;;;2.60;;
5878;SDS011;2965;42.640;23.370;2023-07-20T13:30:58;3.00;;;2.80;;
5878;SDS011;2965;42.640;23.370;2023-07-20T13:33:24;6.67;;;2.93;;
5878;SDS011;2965;42.640;23.370;2023-07-20T13:35:49;8.87;;;3.30;;
5878;SDS011;2965;42.640;23.370;2023-07-20T13:38:15;10.00;;;3.60;;
5878;SDS011;2965;42.640;23.370;2023-07-20T13:40:40;2.70;;;2.60;;
5878;SDS011;2965;42.640;23.370;2023-07-20T13:43:07;8.27;;;3.33;;
5878;SDS011;2965;42.640;23.370;2023-07-20T13:45:32;6.07;;;3.20;;
5878;SDS011;2965;42.640;23.370;2023-07-20T13:47:58;8.47;;;3.50;;
5878;SDS011;2965;42.640;23.370;2023-07-20T13:50:23;8.83;;;4.40;;
5878;SDS011;2965;42.640;23.370;2023-07-20T13:52:48;6.10;;;2.90;;
5878;SDS011;2965;42.640;23.370;2023-07-20T13:55:14;6.77;;;2.60;;
5878;SDS011;2965;42.640;23.370;2023-07-20T13:57:39;4.70;;;3.00;;
5878;SDS011;2965;42.640;23.370;2023-07-20T14:00:05;11.13;;;3.13;;
5878;SDS011;2965;42.640;23.370;2023-07-20T14:02:33;8.23;;;2.90;;
5878;SDS011;2965;42.640;23.370;2023-07-20T14:04:58;11.00;;;2.80;;
5878;SDS011;2965;42.640;23.370;2023-07-20T14:07:24;7.33;;;2.90;;
5878;SDS011;2965;42.640;23.370;2023-07-20T14:09:50;11.60;;;2.80;;
5878;SDS011;2965;42.640;23.370;2023-07-20T14:12:15;4.23;;;3.70;;
5878;SDS011;2965;42.640;23.370;2023-07-20T14:14:40;14.23;;;2.60;;
5878;SDS011;2965;42.640;23.370;2023-07-20T14:17:06;3.57;;;2.20;;
5878;SDS011;2965;42.640;23.370;2023-07-20T14:19:32;5.40;;;2.83;;
5878;SDS011;2965;42.640;23.370;2023-07-20T14:21:57;5.93;;;2.83;;
5878;SDS011;2965;42.640;23.370;2023-07-20T14:24:24;5.50;;;2.20;;
5878;SDS011;2965;42.640;23.370;2023-07-20T14:26:50;4.27;;;3.00;;
5878;SDS011;2965;42.640;23.370;2023-07-20T14:29:15;5.87;;;2.80;;
5878;SDS011;2965;42.640;23.370;2023-07-20T14:31:43;5.07;;;3.07;;
5878;SDS011;2965;42.640;23.370;2023-07-20T14:34:08;4.63;;;2.90;;
5878;SDS011;2965;42.640;23.370;2023-07-20T14:36:34;4.23;;;3.27;;
5878;SDS011;2965;42.640;23.370;2023-07-20T14:38:59;6.07;;;3.10;;
5878;SDS011;2965;42.640;23.370;2023-07-20T14:41:25;12.40;;;2.57;;
5878;SDS011;2965;42.640;23.370;2023-07-20T14:43:51;14.67;;;3.20;;
5878;SDS011;2965;42.640;23.370;2023-07-20T14:46:16;4.53;;;2.80;;
5878;SDS011;2965;42.640;23.370;2023-07-20T14:48:42;12.33;;;2.93;;
5878;SDS011;2965;42.640;23.370;2023-07-20T14:51:07;10.27;;;2.83;;
5878;SDS011;2965;42.640;23.370;2023-07-20T14:53:32;5.87;;;2.80;;
5878;SDS011;2965;42.640;23.370;2023-07-20T14:55:59;3.20;;;2.97;;
5878;SDS011;2965;42.640;23.370;2023-07-20T14:58:27;5.33;;;2.60;;
5878;SDS011;2965;42.640;23.370;2023-07-20T15:00:53;5.77;;;2.50;;
5878;SDS011;2965;42.640;23.370;2023-07-20T15:03:18;4.70;;;3.00;;
5878;SDS011;2965;42.640;23.370;2023-07-20T15:05:43;6.17;;;2.80;;
5878;SDS011;2965;42.640;23.370;2023-07-20T15:08:09;3.10;;;2.90;;
5878;SDS011;2965;42.640;23.370;2023-07-20T15:10:34;3.20;;;2.90;;
5878;SDS011;2965;42.640;23.370;2023-07-20T15:13:00;5.37;;;2.97;;
5878;SDS011;2965;42.640;23.370;2023-07-20T15:15:25;6.63;;;2.60;;
5878;SDS011;2965;42.640;23.370;2023-07-20T15:17:51;8.33;;;3.10;;
5878;SDS011;2965;42.640;23.370;2023-07-20T15:20:16;8.57;;;3.17;;
5878;SDS011;2965;42.640;23.370;2023-07-20T15:22:42;11.53;;;2.97;;
5878;SDS011;2965;42.640;23.370;2023-07-20T15:25:08;3.80;;;3.07;;
5878;SDS011;2965;42.640;23.370;2023-07-20T15:27:36;3.13;;;2.83;;
5878;SDS011;2965;42.640;23.370;2023-07-20T15:30:02;13.23;;;3.50;;
5878;SDS011;2965;42.640;23.370;2023-07-20T15:32:28;3.93;;;2.63;;
5878;SDS011;2965;42.640;23.370;2023-07-20T15:34:53;10.53;;;2.80;;
5878;SDS011;2965;42.640;23.370;2023-07-20T15:37:18;5.83;;;3.20;;
5878;SDS011;2965;42.640;23.370;2023-07-20T15:39:47;12.20;;;3.40;;
5878;SDS011;2965;42.640;23.370;2023-07-20T15:42:13;10.63;;;3.57;;
5878;SDS011;2965;42.640;23.370;2023-07-20T15:44:38;3.37;;;3.10;;
5878;SDS011;2965;42.640;23.370;2023-07-20T15:47:04;3.17;;;2.87;;
5878;SDS011;2965;42.640;23.370;2023-07-20T15:49:31;7.77;;;2.33;;
5878;SDS011;2965;42.640;23.370;2023-07-20T15:51:57;3.63;;;2.97;;
5878;SDS011;2965;42.640;23.370;2023-07-20T15:54:22;5.53;;;2.10;;
5878;SDS011;2965;42.640;23.370;2023-07-20T15:56:47;3.70;;;2.67;;
5878;SDS011;2965;42.640;23.370;2023-07-20T15:59:15;3.93;;;3.30;;
5878;SDS011;2965;42.640;23.370;2023-07-20T16:01:42;11.23;;;3.70;;
5878;SDS011;2965;42.640;23.370;2023-07-20T16:04:08;3.17;;;2.87;;
5878;SDS011;2965;42.640;23.370;2023-07-20T16:06:34;7.00;;;2.80;;
5878;SDS011;2965;42.640;23.370;2023-07-20T16:09:01;3.90;;;3.00;;
5878;SDS011;2965;42.640;23.370;2023-07-20T16:11:29;5.43;;;3.00;;
5878;SDS011;2965;42.640;23.370;2023-07-20T16:13:54;4.70;;;2.80;;
5878;SDS011;2965;42.640;23.370;2023-07-20T16:16:20;3.10;;;2.90;;
5878;SDS011;2965;42.640;23.370;2023-07-20T16:18:45;9.03;;;2.53;;
5878;SDS011;2965;42.640;23.370;2023-07-20T16:21:11;3.90;;;3.60;;
5878;SDS011;2965;42.640;23.370;2023-07-20T16:23:36;4.70;;;2.60;;
5878;SDS011;2965;42.640;23.370;2023-07-20T16:26:02;7.57;;;3.60;;
5878;SDS011;2965;42.640;23.370;2023-07-20T16:28:27;6.07;;;3.53;;
5878;SDS011;2965;42.640;23.370;2023-07-20T16:30:53;3.77;;;2.40;;
5878;SDS011;2965;42.640;23.370;2023-07-20T16:33:18;7.63;;;2.70;;
5878;SDS011;2965;42.640;23.370;2023-07-20T16:38:13;7.27;;;3.40;;
5878;SDS011;2965;42.640;23.370;2023-07-20T16:40:39;7.43;;;3.00;;
5878;SDS011;2965;42.640;23.370;2023-07-20T16:43:04;9.43;;;3.20;;
5878;SDS011;2965;42.640;23.370;2023-07-20T16:45:33;2.50;;;2.40;;
5878;SDS011;2965;42.640;23.370;2023-07-20T16:47:59;7.40;;;3.10;;
5878;SDS011;2965;42.640;23.370;2023-07-20T16:50:24;3.33;;;3.10;;
5878;SDS011;2965;42.640;23.370;2023-07-20T16:52:50;11.10;;;3.50;;
5878;SDS011;2965;42.640;23.370;2023-07-20T16:55:16;4.70;;;3.40;;
5878;SDS011;2965;42.640;23.370;2023-07-20T16:57:42;7.67;;;3.13;;
5878;SDS011;2965;42.640;23.370;2023-07-20T17:00:07;5.23;;;2.97;;
5878;SDS011;2965;42.640;23.370;2023-07-20T17:02:39;5.83;;;3.20;;
5878;SDS011;2965;42.640;23.370;2023-07-20T17:05:05;4.13;;;2.73;;
5878;SDS011;2965;42.640;23.370;2023-07-20T17:07:38;5.53;;;2.83;;
5878;SDS011;2965;42.640;23.370;2023-07-20T17:10:05;4.70;;;2.67;;
5878;SDS011;2965;42.640;23.370;2023-07-20T17:12:37;6.63;;;3.00;;
5878;SDS011;2965;42.640;23.370;2023-07-20T17:15:04;5.13;;;2.77;;
5878;SDS011;2965;42.640;23.370;2023-07-20T17:17:30;8.73;;;3.30;;
5878;SDS011;2965;42.640;23.370;2023-07-20T17:19:55;3.50;;;3.30;;
5878;SDS011;2965;42.640;23.370;2023-07-20T17:22:20;4.17;;;3.10;;
5878;SDS011;2965;42.640;23.370;2023-07-20T17:24:46;3.80;;;2.97;;
5878;SDS011;2965;42.640;23.370;2023-07-20T17:27:11;6.73;;;2.87;;
5878;SDS011;2965;42.640;23.370;2023-07-20T17:29:36;4.00;;;3.57;;
5878;SDS011;2965;42.640;23.370;2023-07-20T17:32:02;6.87;;;2.63;;
5878;SDS011;2965;42.640;23.370;2023-07-20T17:37:00;4.37;;;3.90;;
5878;SDS011;2965;42.640;23.370;2023-07-20T17:39:25;9.30;;;3.00;;
5878;SDS011;2965;42.640;23.370;2023-07-20T17:41:51;2.67;;;2.47;;
5878;SDS011;2965;42.640;23.370;2023-07-20T17:44:17;4.80;;;2.90;;
5878;SDS011;2965;42.640;23.370;2023-07-20T17:46:42;4.43;;;2.70;;
5878;SDS011;2965;42.640;23.370;2023-07-20T17:49:08;7.67;;;2.67;;
5878;SDS011;2965;42.640;23.370;2023-07-20T17:51:33;3.80;;;2.70;;
5878;SDS011;2965;42.640;23.370;2023-07-20T17:53:58;5.40;;;3.50;;
5878;SDS011;2965;42.640;23.370;2023-07-20T17:56:24;3.83;;;2.73;;
5878;SDS011;2965;42.640;23.370;2023-07-20T17:58:49;3.27;;;2.90;;
5878;SDS011;2965;42.640;23.370;2023-07-20T18:01:15;6.10;;;3.27;;
5878;SDS011;2965;42.640;23.370;2023-07-20T18:03:40;6.53;;;3.97;;
5878;SDS011;2965;42.640;23.370;2023-07-20T18:06:06;2.97;;;2.87;;
5878;SDS011;2965;42.640;23.370;2023-07-20T18:08:35;3.10;;;2.70;;
5878;SDS011;2965;42.640;23.370;2023-07-20T18:11:04;3.80;;;3.27;;
5878;SDS011;2965;42.640;23.370;2023-07-20T18:13:30;5.70;;;3.07;;
5878;SDS011;2965;42.640;23.370;2023-07-20T18:15:56;3.43;;;2.70;;
5878;SDS011;2965;42.640;23.370;2023-07-20T18:18:22;5.57;;;2.70;;
5878;SDS011;2965;42.640;23.370;2023-07-20T18:20:47;4.60;;;3.40;;
5878;SDS011;2965;42.640;23.370;2023-07-20T18:23:13;8.33;;;2.77;;
5878;SDS011;2965;42.640;23.370;2023-07-20T18:25:38;3.27;;;2.97;;
5878;SDS011;2965;42.640;23.370;2023-07-20T18:28:06;8.33;;;2.60;;
5878;SDS011;2965;42.640;23.370;2023-07-20T18:30:32;2.90;;;2.73;;
5878;SDS011;2965;42.640;23.370;2023-07-20T18:32:59;2.80;;;2.60;;
5878;SDS011;2965;42.640;23.370;2023-07-20T18:35:25;2.93;;;2.70;;
5878;SDS011;2965;42.640;23.370;2023-07-20T18:37:51;4.93;;;2.97;;
5878;SDS011;2965;42.640;23.370;2023-07-20T18:40:16;3.93;;;2.70;;
5878;SDS011;2965;42.640;23.370;2023-07-20T18:42:41;4.57;;;3.07;;
5878;SDS011;2965;42.640;23.370;2023-07-20T18:45:07;2.97;;;2.47;;
5878;SDS011;2965;42.640;23.370;2023-07-20T18:47:32;8.50;;;3.20;;
5878;SDS011;2965;42.640;23.370;2023-07-20T18:49:58;5.17;;;2.97;;
5878;SDS011;2965;42.640;23.370;2023-07-20T18:52:24;4.90;;;2.70;;
5878;SDS011;2965;42.640;23.370;2023-07-20T18:54:49;3.57;;;2.50;;
5878;SDS011;2965;42.640;23.370;2023-07-20T18:57:15;3.33;;;3.00;;
5878;SDS011;2965;42.640;23.370;2023-07-20T18:59:40;3.00;;;2.60;;
5878;SDS011;2965;42.640;23.370;2023-07-20T19:02:06;8.30;;;3.00;;
5878;SDS011;2965;42.640;23.370;2023-07-20T19:04:32;4.60;;;2.90;;
5878;SDS011;2965;42.640;23.370;2023-07-20T19:06:57;6.23;;;3.80;;
5878;SDS011;2965;42.640;23.370;2023-07-20T19:09:22;8.23;;;3.90;;
5878;SDS011;2965;42.640;23.370;2023-07-20T19:11:48;3.63;;;2.97;;
5878;SDS011;2965;42.640;23.370;2023-07-20T19:14:13;8.07;;;3.80;;